Airfield :
LOGIN :

Register | Disclaimer

   EN    FR    IT 

 










Legend :    VFR   Marginal VFR   IFR   Intensive IFR   Very Intensive IFR
Visi :
Ceiling :
>= 8 km
>= 3000ft
5 to 8 km
1000 to 3000 ft
1500m to 5 km
500 to 1000 ft
800 to 1500m
200 to 500 ft
< 800m
< 200 ft
Symbols :   Thunderstorms  Fog  Heavy snow  Heavy precipitations  Wind > 20 kt
SIGMETs :     Misc.  Thunderstorms  Icing  Turbulence  Mountain Waves  Volcanic Ashes







- Airport Elevation : 266 ft
- IATA code : NCL
- Download approach charts


EGNT - Newcastle

CURRENT METAR :
  • 212350Z 02011KT 7000 SCT006 10/09 Q1020

EXPIRED METARs :
  • 212320Z 02009KT 7000 FEW008 10/09 Q1020
  • 212250Z 34005KT 8000 NSC 09/08 Q1019
  • 212220Z VRB02KT CAVOK 09/08 Q1019
  • 212150Z 07002KT CAVOK 10/08 Q1018
  • 212120Z 07003KT CAVOK 11/08 Q1018

TAF TAF EGNT
Valid from the 22 at 00:00 until the 23 at 00:00 UTC


212253Z 2200/2224 01012KT CAVOK
BECMG 2200/2203 7000 BKN005
PROB40 2200/2208 2000 BR BKN001
BECMG 2208/2211 9999 SCT018
PROB30
TEMPO 2211/2218 8000 BKN014
BECMG 2218/2221 7000 BKN005
PROB40 2221/2224 4000 BR BKN003
ATIS : +44 191 214 3400
No reported NOTAMs for that airfield.



MET'MAP, your aeronautical weather chart ! - Copyright ORBIFLY December 2007 - Disclaimer

ORBIFLY MET'MAP TEAM :

Programming & Development : Alexandra Zaïnal
Concept & Development : Baudouin d'Aumeries
Co-Development & Prog : Marc-Olivier Méhu
Technical & hardware support : Manuel Goepfert

Contact : metmap@orbifly.com




SOURCES & CREDITS :

   NOAA